createdAt,value
2019-05-30T00:00:40.602Z,10.95
2019-05-30T00:03:10.801Z,10.75
2019-05-30T00:05:40.896Z,11.38
2019-05-30T00:08:11.023Z,11.03
2019-05-30T00:10:41.172Z,11.30
2019-05-30T00:13:11.285Z,10.55
2019-05-30T00:15:41.337Z,10.85
2019-05-30T00:18:11.428Z,10.53
2019-05-30T00:20:41.556Z,11.80
2019-05-30T00:23:11.751Z,10.93
2019-05-30T00:25:42.845Z,10.57
2019-05-30T00:28:12.931Z,11.08
2019-05-30T00:30:43.052Z,11.00
2019-05-30T00:33:13.216Z,10.35
2019-05-30T00:35:43.335Z,10.63
2019-05-30T00:38:13.434Z,10.00
2019-05-30T00:40:43.648Z,10.55
2019-05-30T00:43:13.675Z,10.48
2019-05-30T00:45:43.787Z,10.40
2019-05-30T00:48:13.816Z,10.05
2019-05-30T00:50:43.864Z,10.05
2019-05-30T00:53:13.979Z,9.60
2019-05-30T00:55:44.096Z,9.95
2019-05-30T00:58:14.211Z,10.15
2019-05-30T01:00:44.480Z,10.32
2019-05-30T01:03:14.716Z,9.70
2019-05-30T01:05:44.811Z,9.78
2019-05-30T01:08:14.927Z,10.10
2019-05-30T01:10:45.040Z,10.55
2019-05-30T01:13:15.161Z,10.23
2019-05-30T01:15:45.255Z,10.48
2019-05-30T01:18:15.320Z,9.70
2019-05-30T01:20:45.600Z,9.93
2019-05-30T01:23:15.648Z,10.85
2019-05-30T01:25:45.797Z,9.65
2019-05-30T01:28:15.911Z,10.03
2019-05-30T01:30:58.868Z,10.25
2019-05-30T01:33:17.755Z,10.32
2019-05-30T01:35:47.839Z,9.80
2019-05-30T01:38:17.886Z,9.68
2019-05-30T01:40:47.912Z,10.53
2019-05-30T01:43:18.104Z,10.18
2019-05-30T01:45:48.201Z,9.83
2019-05-30T01:48:18.181Z,9.73
2019-05-30T01:50:48.294Z,9.85
2019-05-30T01:53:18.384Z,9.95
2019-05-30T01:55:48.967Z,11.00
2019-05-30T01:58:19.101Z,10.10
2019-05-30T02:00:49.153Z,9.60
2019-05-30T02:03:19.167Z,10.38
2019-05-30T02:05:49.293Z,10.15
2019-05-30T02:08:19.385Z,9.83
2019-05-30T02:10:49.513Z,9.28
2019-05-30T02:13:19.529Z,8.80
2019-05-30T02:15:49.757Z,9.48
2019-05-30T02:18:19.843Z,9.38
2019-05-30T02:20:49.957Z,8.80
2019-05-30T02:23:19.973Z,9.90
2019-05-30T02:25:50.016Z,9.20
2019-05-30T02:28:20.032Z,9.70
2019-05-30T02:30:50.138Z,9.48
2019-05-30T02:33:20.181Z,9.40
2019-05-30T02:35:50.137Z,9.10
2019-05-30T02:38:20.377Z,9.50
2019-05-30T02:40:50.467Z,9.33
2019-05-30T02:43:20.423Z,9.55
2019-05-30T02:45:50.436Z,9.63
2019-05-30T02:48:21.509Z,8.78
2019-05-30T02:50:51.517Z,9.48
2019-05-30T02:53:21.625Z,9.98
2019-05-30T02:55:51.569Z,9.38
2019-05-30T02:58:21.676Z,9.50
2019-05-30T03:00:51.758Z,9.38
2019-05-30T03:03:21.797Z,9.50
2019-05-30T03:05:51.887Z,9.48
2019-05-30T03:08:22.009Z,9.38
2019-05-30T03:10:52.375Z,9.15
2019-05-30T03:13:22.783Z,9.80
2019-05-30T03:15:52.958Z,9.65
2019-05-30T03:18:23.066Z,9.63
2019-05-30T03:20:53.276Z,9.33
2019-05-30T03:23:23.362Z,10.05
2019-05-30T03:25:53.477Z,10.15
2019-05-30T03:28:23.558Z,10.30
2019-05-30T03:30:54.069Z,9.15
2019-05-30T03:33:37.623Z,10.10
2019-05-30T03:35:55.890Z,10.18
2019-05-30T03:38:25.992Z,9.88
2019-05-30T03:40:56.281Z,9.55
2019-05-30T03:43:26.366Z,9.43
2019-05-30T03:45:56.984Z,9.25
2019-05-30T03:48:28.273Z,10.03
2019-05-30T03:51:00.374Z,9.50
2019-05-30T03:56:04.462Z,9.65
2019-05-30T03:58:58.157Z,10.35
2019-05-30T04:01:33.977Z,9.33
2019-05-30T04:04:14.515Z,9.93
2019-05-30T04:06:47.589Z,9.98
2019-05-30T04:09:24.515Z,9.80
2019-05-30T04:11:54.724Z,9.58
2019-05-30T04:14:27.745Z,8.90
2019-05-30T04:16:57.787Z,9.53
2019-05-30T04:19:27.888Z,9.13
2019-05-30T04:21:59.087Z,8.88
2019-05-30T04:24:29.171Z,9.08
2019-05-30T04:26:59.168Z,9.35
2019-05-30T04:29:29.233Z,9.18
2019-05-30T04:31:59.348Z,8.60
2019-05-30T04:34:29.397Z,8.70
2019-05-30T04:36:59.488Z,8.73
2019-05-30T04:39:29.462Z,9.35
2019-05-30T04:41:59.583Z,9.03
2019-05-30T04:44:29.549Z,8.68
2019-05-30T04:46:59.569Z,9.23
2019-05-30T04:49:29.687Z,9.33
2019-05-30T04:51:59.705Z,8.65
2019-05-30T04:54:29.750Z,8.80
2019-05-30T04:56:59.693Z,8.68
2019-05-30T04:59:29.733Z,8.93
2019-05-30T05:01:59.821Z,9.03
2019-05-30T05:04:29.865Z,8.85
2019-05-30T05:06:59.957Z,8.83
2019-05-30T05:09:29.935Z,9.45
2019-05-30T05:11:59.865Z,8.88
2019-05-30T05:14:29.910Z,9.30
2019-05-30T05:16:59.930Z,8.98
2019-05-30T05:19:30.036Z,9.10
2019-05-30T05:22:00.128Z,9.18
2019-05-30T05:24:30.240Z,8.00
2019-05-30T05:27:00.327Z,8.73
2019-05-30T05:29:30.436Z,8.43
2019-05-30T05:32:00.459Z,7.97
2019-05-30T05:34:30.438Z,8.60
2019-05-30T05:37:01.417Z,8.63
2019-05-30T05:39:32.496Z,8.80
2019-05-30T05:42:02.509Z,9.15
2019-05-30T05:44:32.552Z,8.80
2019-05-30T05:47:02.567Z,8.83
2019-05-30T05:49:32.976Z,8.75
2019-05-30T05:52:03.020Z,8.53
2019-05-30T05:54:32.991Z,8.85
2019-05-30T05:57:03.106Z,9.18
2019-05-30T05:59:33.148Z,9.28
2019-05-30T06:02:03.263Z,10.20
2019-05-30T06:04:33.216Z,9.28
2019-05-30T06:07:03.201Z,9.38
2019-05-30T06:09:33.292Z,9.23
2019-05-30T06:12:03.269Z,9.23
2019-05-30T06:14:33.306Z,8.65
2019-05-30T06:17:03.408Z,9.70
2019-05-30T06:19:45.893Z,8.55
2019-05-30T06:22:05.264Z,8.73
2019-05-30T06:24:35.352Z,9.23
2019-05-30T06:27:05.473Z,8.30
2019-05-30T06:29:35.552Z,7.80
2019-05-30T06:32:05.664Z,8.95
2019-05-30T06:34:39.144Z,9.15
2019-05-30T06:37:07.487Z,9.00
2019-05-30T06:39:37.579Z,8.50
2019-05-30T06:42:07.624Z,7.85
2019-05-30T06:44:37.803Z,8.45
2019-05-30T06:47:07.906Z,7.72
2019-05-30T06:49:37.944Z,7.55
2019-05-30T06:52:08.104Z,7.95
2019-05-30T06:54:38.216Z,8.03
2019-05-30T06:57:08.307Z,6.67
2019-05-30T06:59:38.424Z,6.53
2019-05-30T07:02:08.604Z,6.87
2019-05-30T07:04:50.919Z,6.92
2019-05-30T07:07:10.456Z,5.97
2019-05-30T07:09:40.731Z,6.37
2019-05-30T07:12:12.040Z,5.47
2019-05-30T07:14:42.243Z,5.17
2019-05-30T07:17:12.324Z,5.12
2019-05-30T07:19:42.431Z,5.03
2019-05-30T07:22:12.517Z,5.12
2019-05-30T07:24:42.620Z,5.37
2019-05-30T07:27:12.632Z,4.72
2019-05-30T07:29:42.673Z,5.05
2019-05-30T07:32:13.599Z,4.87
2019-05-30T07:34:45.877Z,5.08
2019-05-30T07:37:15.235Z,5.03
2019-05-30T07:39:45.355Z,4.80
2019-05-30T07:42:15.436Z,4.70
2019-05-30T07:44:45.476Z,4.87
2019-05-30T07:47:15.565Z,4.92
2019-05-30T07:49:45.671Z,4.20
2019-05-30T07:52:15.685Z,3.90
2019-05-30T07:54:45.794Z,3.85
2019-05-30T07:57:15.809Z,3.50
2019-05-30T07:59:45.852Z,3.17
2019-05-30T08:02:15.935Z,3.20
2019-05-30T08:04:47.046Z,2.75
2019-05-30T08:07:17.200Z,2.90
2019-05-30T08:09:47.224Z,3.30
2019-05-30T08:12:17.242Z,3.25
2019-05-30T08:14:47.287Z,3.75
2019-05-30T08:17:17.373Z,3.27
2019-05-30T08:19:47.411Z,3.87
2019-05-30T08:22:18.393Z,2.98
2019-05-30T08:24:48.436Z,2.52
2019-05-30T08:27:18.452Z,3.10
2019-05-30T08:29:49.307Z,3.52
2019-05-30T08:32:19.391Z,2.50
2019-05-30T08:34:49.501Z,3.27
2019-05-30T08:37:19.584Z,3.40
2019-05-30T08:39:49.821Z,2.80
2019-05-30T08:42:19.923Z,3.22
2019-05-30T08:44:50.008Z,3.90
2019-05-30T08:47:20.044Z,3.22
2019-05-30T08:49:50.061Z,2.98
2019-05-30T08:52:20.168Z,2.05
2019-05-30T08:54:50.271Z,2.10
2019-05-30T08:57:20.493Z,1.70
2019-05-30T08:59:50.571Z,2.50
2019-05-30T09:02:20.682Z,1.98
2019-05-30T09:04:50.691Z,2.70
2019-05-30T09:07:20.828Z,2.25
2019-05-30T09:09:50.756Z,2.72
2019-05-30T09:12:20.859Z,3.42
2019-05-30T09:14:50.941Z,3.30
2019-05-30T09:17:21.051Z,2.70
2019-05-30T09:19:51.063Z,3.65
2019-05-30T09:22:21.175Z,3.50
2019-05-30T09:24:51.188Z,2.87
2019-05-30T09:27:21.235Z,3.00
2019-05-30T09:29:51.344Z,3.10
2019-05-30T09:32:21.459Z,2.52
2019-05-30T09:34:51.539Z,2.20
2019-05-30T09:37:21.626Z,2.58
2019-05-30T09:39:51.657Z,2.20
2019-05-30T09:42:21.740Z,2.95
2019-05-30T09:44:52.197Z,2.58
2019-05-30T09:47:22.193Z,2.70
2019-05-30T09:49:52.300Z,2.58
2019-05-30T09:52:22.388Z,2.75
2019-05-30T09:54:52.643Z,3.00
2019-05-30T09:57:22.677Z,2.35
2019-05-30T09:59:52.872Z,2.72
2019-05-30T10:02:22.948Z,2.90
2019-05-30T10:04:53.060Z,2.98
2019-05-30T10:07:23.147Z,2.80
2019-05-30T10:09:53.216Z,2.42
2019-05-30T10:12:23.277Z,2.90
2019-05-30T10:14:53.375Z,2.45
2019-05-30T10:17:23.448Z,2.02
2019-05-30T10:19:53.464Z,2.50
2019-05-30T10:22:23.572Z,2.50
2019-05-30T10:24:53.714Z,2.45
2019-05-30T10:27:23.876Z,2.70
2019-05-30T10:29:53.889Z,2.72
2019-05-30T10:32:23.994Z,2.52
2019-05-30T10:34:54.074Z,2.52
2019-05-30T10:37:24.219Z,2.80
2019-05-30T10:39:58.689Z,2.20
2019-05-30T10:42:25.892Z,2.10
2019-05-30T10:44:56.469Z,2.60
2019-05-30T10:47:27.559Z,1.90
2019-05-30T10:49:57.868Z,2.30
2019-05-30T10:52:27.972Z,1.70
2019-05-30T10:54:58.079Z,2.00
2019-05-30T10:57:28.235Z,1.60
2019-05-30T10:59:58.350Z,1.50
2019-05-30T11:02:28.428Z,1.50
2019-05-30T11:04:58.544Z,1.40
2019-05-30T11:07:34.601Z,1.67
2019-05-30T11:10:07.648Z,1.50
2019-05-30T11:12:37.801Z,1.42
2019-05-30T11:15:09.190Z,1.20
2019-05-30T11:17:39.274Z,1.27
2019-05-30T11:20:09.382Z,1.15
2019-05-30T11:22:39.396Z,1.20
2019-05-30T11:25:09.429Z,1.35
2019-05-30T11:27:39.510Z,1.20
2019-05-30T11:30:09.818Z,1.30
2019-05-30T11:32:39.935Z,1.60
2019-05-30T11:35:10.229Z,1.47
2019-05-30T11:37:40.321Z,1.50
2019-05-30T11:40:10.506Z,1.45
2019-05-30T11:42:40.698Z,1.32
2019-05-30T11:45:10.881Z,1.22
2019-05-30T11:47:40.989Z,1.15
2019-05-30T11:50:13.094Z,1.37
2019-05-30T11:52:43.312Z,1.50
2019-05-30T11:55:13.694Z,1.40
2019-05-30T11:57:43.810Z,1.25
2019-05-30T12:00:14.393Z,1.35
2019-05-30T12:02:44.504Z,1.27
2019-05-30T12:05:14.787Z,1.27
2019-05-30T12:07:45.882Z,1.20
2019-05-30T12:10:16.391Z,1.20
2019-05-30T12:12:46.500Z,1.25
2019-05-30T12:15:17.017Z,1.02
2019-05-30T12:17:47.101Z,1.20
2019-05-30T12:20:17.313Z,1.30
2019-05-30T12:22:47.468Z,1.10
2019-05-30T12:25:17.776Z,1.25
2019-05-30T12:27:47.924Z,1.45
2019-05-30T12:30:19.527Z,1.30
2019-05-30T12:32:49.633Z,1.30
2019-05-30T12:35:20.797Z,1.32
2019-05-30T12:37:56.106Z,1.20
2019-05-30T12:42:55.425Z,1.70
2019-05-30T12:47:53.030Z,1.30
2019-05-30T12:50:23.485Z,1.22
2019-05-30T12:52:53.568Z,1.40
2019-05-30T12:55:23.674Z,1.50
2019-05-30T12:57:54.604Z,1.40
2019-05-30T13:00:30.428Z,1.10
2019-05-30T13:03:00.880Z,1.60
2019-05-30T13:05:31.630Z,2.37
2019-05-30T13:08:17.999Z,1.40
2019-05-30T13:10:33.382Z,1.70
2019-05-30T13:13:04.013Z,1.40
2019-05-30T13:15:34.215Z,1.60
2019-05-30T13:18:05.292Z,1.52
2019-05-30T13:20:35.376Z,1.22
2019-05-30T13:23:06.936Z,1.32
2019-05-30T13:25:37.067Z,1.30
2019-05-30T13:28:08.529Z,1.25
2019-05-30T13:33:07.870Z,1.27
2019-05-30T13:35:37.880Z,1.20
2019-05-30T13:38:07.998Z,1.30
2019-05-30T13:40:38.976Z,1.40
2019-05-30T13:43:09.089Z,1.45
2019-05-30T13:45:39.173Z,1.30
2019-05-30T13:48:09.290Z,1.15
2019-05-30T13:50:39.368Z,1.00
2019-05-30T13:53:10.553Z,1.77
2019-05-30T13:55:40.641Z,1.10
2019-05-30T13:58:10.603Z,1.25
2019-05-30T14:00:40.786Z,1.10
2019-05-30T14:03:10.948Z,1.20
2019-05-30T14:05:41.064Z,1.20
2019-05-30T14:08:16.488Z,1.10
2019-05-30T14:10:42.918Z,1.25
2019-05-30T14:13:14.068Z,1.05
2019-05-30T14:15:44.244Z,1.32
2019-05-30T14:18:14.400Z,1.35
2019-05-30T14:20:44.509Z,1.27
2019-05-30T14:23:14.534Z,1.20
2019-05-30T14:25:44.583Z,1.22
2019-05-30T14:28:14.786Z,1.22
2019-05-30T14:30:44.954Z,1.40
2019-05-30T14:33:14.983Z,1.40
2019-05-30T14:35:45.029Z,1.52
2019-05-30T14:38:15.195Z,1.22
2019-05-30T14:40:45.263Z,1.40
2019-05-30T14:43:15.317Z,1.20
2019-05-30T14:45:45.404Z,1.27
2019-05-30T14:48:15.422Z,1.50
2019-05-30T14:50:45.528Z,1.85
2019-05-30T14:53:15.613Z,1.50
2019-05-30T14:55:45.721Z,1.40
2019-05-30T14:58:15.728Z,1.40
2019-05-30T15:00:45.701Z,1.30
2019-05-30T15:03:16.087Z,1.95
2019-05-30T15:05:47.162Z,1.30
2019-05-30T15:08:18.215Z,1.30
2019-05-30T15:10:48.252Z,1.42
2019-05-30T15:13:18.373Z,1.20
2019-05-30T15:15:48.376Z,1.10
2019-05-30T15:18:18.487Z,1.40
2019-05-30T15:20:48.503Z,1.20
2019-05-30T15:23:18.540Z,1.80
2019-05-30T15:25:48.625Z,1.50
2019-05-30T15:28:18.799Z,1.50
2019-05-30T15:30:48.886Z,1.47
2019-05-30T15:33:18.997Z,1.50
2019-05-30T15:35:49.111Z,1.40
2019-05-30T15:38:19.133Z,1.50
2019-05-30T15:40:49.203Z,1.37
2019-05-30T15:43:19.313Z,1.42
2019-05-30T15:45:49.560Z,1.10
2019-05-30T15:48:19.604Z,1.30
2019-05-30T15:50:49.685Z,1.30
2019-05-30T15:53:19.731Z,1.25
2019-05-30T15:55:49.819Z,1.57
2019-05-30T15:58:20.517Z,1.30
2019-05-30T16:00:50.707Z,1.60
2019-05-30T16:03:20.749Z,1.62
2019-05-30T16:05:51.851Z,1.32
2019-05-30T16:08:21.961Z,1.57
2019-05-30T16:10:52.043Z,1.92
2019-05-30T16:13:22.145Z,2.27
2019-05-30T16:15:52.301Z,3.33
2019-05-30T16:18:22.265Z,1.92
2019-05-30T16:20:52.282Z,1.80
2019-05-30T16:23:22.490Z,1.70
2019-05-30T16:25:52.640Z,2.45
2019-05-30T16:28:22.827Z,1.80
2019-05-30T16:30:52.913Z,1.50
2019-05-30T16:33:23.025Z,1.55
2019-05-30T16:35:53.109Z,1.40
2019-05-30T16:38:24.124Z,2.05
2019-05-30T16:40:54.139Z,1.50
2019-05-30T16:43:24.260Z,1.45
2019-05-30T16:45:54.343Z,1.30
2019-05-30T16:48:24.387Z,1.42
2019-05-30T16:50:54.398Z,1.52
2019-05-30T16:53:25.888Z,1.65
2019-05-30T16:55:55.984Z,2.22
2019-05-30T16:58:26.102Z,1.80
2019-05-30T17:00:56.143Z,1.90
2019-05-30T17:03:26.200Z,2.58
2019-05-30T17:05:57.467Z,1.70
2019-05-30T17:08:27.656Z,2.10
2019-05-30T17:10:57.770Z,1.70
2019-05-30T17:13:31.089Z,1.92
2019-05-30T17:15:59.589Z,1.42
2019-05-30T17:18:29.737Z,1.62
2019-05-30T17:20:59.865Z,1.50
2019-05-30T17:23:29.947Z,1.57
2019-05-30T17:25:59.915Z,1.70
2019-05-30T17:28:30.069Z,1.60
2019-05-30T17:31:00.173Z,1.50
2019-05-30T17:33:30.256Z,1.35
2019-05-30T17:36:00.294Z,1.90
2019-05-30T17:38:30.371Z,4.00
2019-05-30T17:41:00.474Z,1.90
2019-05-30T17:43:30.489Z,4.28
2019-05-30T17:46:00.555Z,2.25
2019-05-30T17:48:30.557Z,2.20
2019-05-30T17:51:00.597Z,2.50
2019-05-30T17:53:30.668Z,1.47
2019-05-30T17:56:00.785Z,1.47
2019-05-30T17:58:30.864Z,1.27
2019-05-30T18:01:00.912Z,1.40
2019-05-30T18:03:30.935Z,1.40
2019-05-30T18:06:01.099Z,1.57
2019-05-30T18:08:31.467Z,1.42
2019-05-30T18:11:02.566Z,1.70
2019-05-30T18:13:32.645Z,1.50
2019-05-30T18:16:02.824Z,1.67
2019-05-30T18:18:33.996Z,1.55
2019-05-30T18:21:04.105Z,1.55
2019-05-30T18:23:34.188Z,1.40
2019-05-30T18:26:04.301Z,1.50
2019-05-30T18:28:34.385Z,1.80
2019-05-30T18:31:04.501Z,1.60
2019-05-30T18:33:34.581Z,1.52
2019-05-30T18:36:04.693Z,1.72
2019-05-30T18:38:34.773Z,1.77
2019-05-30T18:41:11.414Z,1.70
2019-05-30T18:43:36.508Z,1.80
2019-05-30T18:46:06.620Z,2.08
2019-05-30T18:48:36.701Z,2.20
2019-05-30T18:51:06.813Z,2.50
2019-05-30T18:53:36.900Z,2.17
2019-05-30T18:56:07.006Z,2.30
2019-05-30T18:58:37.501Z,2.12
2019-05-30T19:01:07.690Z,2.00
2019-05-30T19:03:37.901Z,2.27
2019-05-30T19:06:08.011Z,2.30
2019-05-30T19:08:38.159Z,1.92
2019-05-30T19:11:08.267Z,1.90
2019-05-30T19:13:38.354Z,2.30
2019-05-30T19:16:08.465Z,2.10
2019-05-30T19:18:38.507Z,2.10
2019-05-30T19:21:08.590Z,2.40
2019-05-30T19:23:39.834Z,2.00
2019-05-30T19:26:10.032Z,1.90
2019-05-30T19:28:40.137Z,2.10
2019-05-30T19:31:10.086Z,1.80
2019-05-30T19:33:40.059Z,2.70
2019-05-30T19:36:09.997Z,3.55
2019-05-30T19:38:40.104Z,5.70
2019-05-30T19:41:10.188Z,5.65
2019-05-30T19:43:40.313Z,5.00
2019-05-30T19:46:13.111Z,6.10
2019-05-30T19:48:42.105Z,4.12
2019-05-30T19:51:12.193Z,3.00
2019-05-30T19:53:42.230Z,3.00
2019-05-30T19:56:12.313Z,3.15
2019-05-30T19:58:42.436Z,3.20
2019-05-30T20:01:12.475Z,3.05
2019-05-30T20:03:46.738Z,3.02
2019-05-30T20:06:14.341Z,3.12
2019-05-30T20:08:54.832Z,3.30
2019-05-30T20:11:16.143Z,2.92
2019-05-30T20:13:46.157Z,2.98
2019-05-30T20:16:16.200Z,3.15
2019-05-30T20:18:46.211Z,3.45
2019-05-30T20:21:16.320Z,3.08
2019-05-30T20:23:54.379Z,3.35
2019-05-30T20:26:18.143Z,3.45
2019-05-30T20:28:48.230Z,3.37
2019-05-30T20:31:18.336Z,3.10
2019-05-30T20:33:48.349Z,2.98
2019-05-30T20:36:18.393Z,3.10
2019-05-30T20:38:48.475Z,3.25
2019-05-30T20:41:18.513Z,3.10
2019-05-30T20:43:48.524Z,3.15
2019-05-30T20:46:23.335Z,3.00
2019-05-30T20:48:50.269Z,3.02
2019-05-30T20:51:21.501Z,3.20
2019-05-30T20:53:54.622Z,3.58
2019-05-30T20:56:23.271Z,3.45
2019-05-30T20:58:53.377Z,3.60
2019-05-30T21:01:23.315Z,4.00
2019-05-30T21:03:53.424Z,3.10
2019-05-30T21:06:23.510Z,3.00
2019-05-30T21:08:55.289Z,3.22
2019-05-30T21:11:26.072Z,2.45
2019-05-30T21:13:56.184Z,3.08
2019-05-30T21:16:28.641Z,3.17
2019-05-30T21:18:59.395Z,3.15
2019-05-30T21:21:29.868Z,3.20
2019-05-30T21:24:00.045Z,3.00
2019-05-30T21:26:30.129Z,3.12
2019-05-30T21:29:00.241Z,2.83
2019-05-30T21:31:30.252Z,2.20
2019-05-30T21:34:00.381Z,2.50
2019-05-30T21:36:30.503Z,2.37
2019-05-30T21:39:00.616Z,2.10
2019-05-30T21:41:30.700Z,2.27
2019-05-30T21:44:00.807Z,2.20
2019-05-30T21:46:30.902Z,2.67
2019-05-30T21:49:01.008Z,2.15
2019-05-30T21:51:31.159Z,2.25
2019-05-30T21:54:01.199Z,2.50
2019-05-30T21:56:31.290Z,2.50
2019-05-30T21:59:01.325Z,2.30
2019-05-30T22:01:33.539Z,2.10
2019-05-30T22:04:05.315Z,2.27
2019-05-30T22:06:36.478Z,2.20
2019-05-30T22:09:07.853Z,2.30
2019-05-30T22:11:38.032Z,2.15
2019-05-30T22:14:08.109Z,2.27
2019-05-30T22:16:38.288Z,2.00
2019-05-30T22:19:08.373Z,2.10
2019-05-30T22:21:38.484Z,1.92
2019-05-30T22:24:08.569Z,2.00
2019-05-30T22:26:38.684Z,2.00
2019-05-30T22:29:08.767Z,1.90
2019-05-30T22:31:38.801Z,1.70
2019-05-30T22:34:08.876Z,2.10
2019-05-30T22:36:38.912Z,2.10
2019-05-30T22:39:09.124Z,1.95
2019-05-30T22:41:39.274Z,1.80
2019-05-30T22:44:10.396Z,1.83
2019-05-30T22:46:40.507Z,1.80
2019-05-30T22:49:10.599Z,1.47
2019-05-30T22:51:40.638Z,1.57
2019-05-30T22:54:10.738Z,1.65
2019-05-30T22:56:40.750Z,1.90
2019-05-30T22:59:10.855Z,1.72
2019-05-30T23:01:40.940Z,1.47
2019-05-30T23:04:11.004Z,1.50
2019-05-30T23:06:40.996Z,1.65
2019-05-30T23:09:11.511Z,1.77
2019-05-30T23:11:41.596Z,1.87
2019-05-30T23:14:11.633Z,2.15
2019-05-30T23:16:41.711Z,2.00
2019-05-30T23:19:11.754Z,1.62
2019-05-30T23:21:41.769Z,1.62
2019-05-30T23:24:11.808Z,1.55
2019-05-30T23:26:41.917Z,1.87
2019-05-30T23:29:11.863Z,1.80
2019-05-30T23:31:41.833Z,1.60
2019-05-30T23:34:11.985Z,1.80
2019-05-30T23:36:42.098Z,1.62
2019-05-30T23:39:12.132Z,1.70
2019-05-30T23:41:42.175Z,1.65
2019-05-30T23:44:12.292Z,1.37
2019-05-30T23:46:43.323Z,1.57
2019-05-30T23:49:13.263Z,1.60
2019-05-30T23:51:43.370Z,1.55
2019-05-30T23:54:13.389Z,1.40
2019-05-30T23:56:43.545Z,1.55
2019-05-30T23:59:13.580Z,1.47
